Time;durP1;ratioP1;P1;durP2;ratioP2;P2;SDS_P1;SDS_P2;PMS_P1;PMS_P2;Temp;Humidity;BMP_temperature;BMP_pressure;BME280_temperature;BME280_humidity;BME280_pressure;Samples;Min_cycle;Max_cycle;Signal;HPM_P1;HPM_P2
2022/02/28 10:39:04;;;;;;;13.33;9.40;;;10.50;34.90;;;;;;6181013;22;1520450;-69
2022/02/28 10:41:50;;;;;;;12.53;8.30;;;10.70;33.00;;;;;;6274806;22;20203;-68
2022/02/28 10:44:36;;;;;;;13.70;7.60;;;10.80;30.80;;;;;;6270030;22;20382;-69
2022/02/28 10:47:22;;;;;;;11.93;8.90;;;10.60;33.20;;;;;;6275020;22;20840;-69
2022/02/28 10:50:09;;;;;;;12.47;7.60;;;10.70;34.80;;;;;;6268860;22;20530;-69
2022/02/28 10:52:58;;;;;;;11.13;8.13;;;10.90;34.70;;;;;;6244590;23;20914;-69
2022/02/28 10:55:46;;;;;;;11.60;7.80;;;11.10;30.20;;;;;;6239350;23;20419;-69
2022/02/28 10:58:34;;;;;;;12.37;8.43;;;11.20;31.20;;;;;;6243840;23;20866;-68
2022/02/28 11:01:19;;;;;;;10.17;7.13;;;11.00;30.00;;;;;;6239004;22;20477;-68
2022/02/28 11:04:05;;;;;;;12.80;8.70;;;11.20;31.90;;;;;;6242236;23;20354;-68
2022/02/28 11:06:51;;;;;;;15.97;8.37;;;11.40;30.40;;;;;;6242652;23;20347;-68
2022/02/28 11:09:39;;;;;;;14.70;7.40;;;11.70;30.70;;;;;;6241220;23;21244;-68
2022/02/28 11:12:28;;;;;;;12.53;8.37;;;12.00;29.90;;;;;;6243473;23;20394;-69
2022/02/28 11:15:16;;;;;;;12.03;7.33;;;12.10;31.10;;;;;;6243151;23;20758;-70
2022/02/28 11:18:02;;;;;;;16.17;8.30;;;12.20;29.70;;;;;;6243377;23;20350;-68
2022/02/28 11:20:49;;;;;;;12.20;7.30;;;12.30;29.50;;;;;;6241330;22;20406;-68
2022/02/28 11:23:38;;;;;;;11.77;6.97;;;12.40;29.50;;;;;;6242531;23;20737;-67
2022/02/28 11:26:24;;;;;;;10.10;7.70;;;12.60;29.40;;;;;;6242299;23;20341;-68
2022/02/28 11:29:11;;;;;;;11.77;7.40;;;12.70;29.50;;;;;;6239323;23;20384;-69
2022/02/28 11:31:57;;;;;;;8.50;6.57;;;12.80;28.70;;;;;;6242752;22;20386;-69
2022/02/28 11:34:43;;;;;;;12.07;7.40;;;12.80;28.80;;;;;;6242164;23;20433;-70
2022/02/28 11:37:32;;;;;;;11.73;8.33;;;12.70;27.10;;;;;;6243883;23;20365;-68
2022/02/28 11:40:21;;;;;;;12.77;8.40;;;12.80;27.70;;;;;;6240264;22;20420;-68
2022/02/28 11:43:13;;;;;;;9.10;6.57;;;12.80;29.20;;;;;;6242325;23;20358;-68
2022/02/28 11:46:10;;;;;;;11.57;7.60;;;12.90;28.70;;;;;;6242557;23;20854;-68
2022/02/28 11:48:58;;;;;;;11.00;8.30;;;13.10;26.70;;;;;;6240744;23;20376;-69
2022/02/28 11:51:43;;;;;;;10.00;6.60;;;13.00;27.60;;;;;;6242109;22;20742;-70
2022/02/28 11:54:31;;;;;;;10.73;7.57;;;13.20;28.10;;;;;;6242098;23;20372;-68
2022/02/28 11:57:17;;;;;;;12.13;7.73;;;13.40;27.80;;;;;;6242272;23;20411;-68
2022/02/28 12:00:02;;;;;;;11.40;7.70;;;13.40;27.50;;;;;;6240554;22;20394;-69
2022/02/28 12:02:50;;;;;;;11.70;7.33;;;13.60;27.10;;;;;;6242268;23;20689;-70
2022/02/28 12:05:40;;;;;;;10.70;6.63;;;13.70;26.30;;;;;;6242391;23;20352;-69
2022/02/28 12:08:36;;;;;;;8.93;6.60;;;13.80;25.70;;;;;;6240526;23;20838;-69
2022/02/28 12:11:28;;;;;;;9.60;6.93;;;14.00;27.10;;;;;;6242336;22;20891;-69
2022/02/28 12:14:13;;;;;;;9.20;7.00;;;14.00;26.80;;;;;;6242450;23;20346;-69
2022/02/28 12:20:16;;;;;;;12.00;8.37;;;14.10;25.60;;;;;;6239781;22;21003;-68
2022/02/28 12:23:15;;;;;;;11.03;6.87;;;14.00;25.60;;;;;;6240246;23;20373;-70
2022/02/28 12:26:10;;;;;;;11.63;7.53;;;14.00;25.40;;;;;;6240402;23;20346;-69
2022/02/28 12:28:55;;;;;;;9.93;6.97;;;14.20;25.00;;;;;;6236164;23;20354;-70
2022/02/28 12:31:41;;;;;;;9.13;6.47;;;14.20;25.80;;;;;;6238077;22;20826;-70
2022/02/28 12:34:37;;;;;;;9.77;7.00;;;14.30;25.10;;;;;;6239408;23;20396;-71
2022/02/28 12:37:25;;;;;;;9.30;6.50;;;14.50;24.60;;;;;;6240471;23;20441;-70
2022/02/28 12:40:12;;;;;;;10.77;7.60;;;14.70;24.80;;;;;;6237094;22;20390;-69
2022/02/28 12:42:59;;;;;;;11.97;7.70;;;14.80;25.30;;;;;;6242237;23;20448;-69
2022/02/28 12:45:45;;;;;;;11.13;7.97;;;15.00;24.50;;;;;;6238595;23;20432;-69
2022/02/28 12:48:32;;;;;;;9.23;6.50;;;14.80;24.50;;;;;;6239940;23;20351;-69
2022/02/28 12:51:23;;;;;;;12.47;7.30;;;14.80;24.30;;;;;;6240630;22;20427;-71
2022/02/28 12:54:12;;;;;;;9.77;6.67;;;14.90;23.10;;;;;;6231983;23;20350;-70
2022/02/28 12:57:00;;;;;;;7.73;5.60;;;14.70;22.10;;;;;;6239731;23;20543;-69
2022/02/28 12:59:46;;;;;;;16.43;6.30;;;14.70;22.80;;;;;;6236967;22;20360;-70
2022/02/28 13:02:34;;;;;;;10.80;5.97;;;14.80;24.30;;;;;;6244012;23;20442;-69
2022/02/28 13:05:21;;;;;;;10.60;6.77;;;14.80;23.70;;;;;;6241196;23;20378;-69
2022/02/28 13:08:07;;;;;;;10.57;6.17;;;15.00;22.50;;;;;;6240232;23;20384;-70
2022/02/28 13:11:11;;;;;;;8.83;5.67;;;15.10;22.40;;;;;;6244005;22;20412;-70
2022/02/28 13:13:57;;;;;;;9.70;6.90;;;14.90;22.20;;;;;;6239798;23;20457;-69
2022/02/28 13:16:45;;;;;;;8.47;5.97;;;15.10;20.80;;;;;;6242280;23;20428;-71
2022/02/28 13:19:31;;;;;;;11.70;7.47;;;15.30;22.50;;;;;;6237966;23;20456;-69
2022/02/28 13:22:21;;;;;;;10.13;6.77;;;15.50;22.70;;;;;;6243167;23;20352;-69
2022/02/28 13:25:08;;;;;;;10.37;6.37;;;15.60;23.50;;;;;;6241654;23;20369;-70
2022/02/28 13:27:56;;;;;;;6.53;5.40;;;15.70;21.90;;;;;;6239314;23;20351;-69
2022/02/28 13:30:42;;;;;;;11.47;6.60;;;15.90;22.10;;;;;;6241804;22;20746;-70
2022/02/28 13:33:29;;;;;;;8.23;6.30;;;15.80;23.00;;;;;;6243374;23;20731;-69
2022/02/28 13:36:15;;;;;;;8.80;6.80;;;15.70;22.90;;;;;;6244075;23;20404;-69
2022/02/28 13:39:00;;;;;;;8.60;6.73;;;15.80;23.00;;;;;;6237616;23;20352;-69
2022/02/28 13:41:46;;;;;;;11.60;6.27;;;15.90;22.00;;;;;;6240070;22;20468;-70
2022/02/28 13:44:37;;;;;;;8.13;5.70;;;15.80;21.70;;;;;;6243001;23;20658;-70
2022/02/28 13:47:24;;;;;;;10.77;6.63;;;16.00;21.50;;;;;;6242405;23;20405;-71
2022/02/28 13:50:12;;;;;;;10.13;6.87;;;15.90;22.60;;;;;;6237803;22;20869;-70
2022/02/28 13:53:04;;;;;;;10.07;6.23;;;15.70;22.00;;;;;;6242496;23;20848;-70
2022/02/28 13:55:52;;;;;;;9.40;6.20;;;15.70;21.40;;;;;;6241995;23;20733;-70
2022/02/28 13:58:39;;;;;;;9.90;6.70;;;15.80;21.90;;;;;;6240425;23;20371;-70
2022/02/28 14:01:25;;;;;;;9.40;6.53;;;15.90;22.20;;;;;;6242313;22;20397;-69
2022/02/28 14:04:11;;;;;;;8.63;6.10;;;16.10;20.90;;;;;;6243383;23;20861;-69
2022/02/28 14:06:58;;;;;;;10.70;7.17;;;16.30;21.60;;;;;;6238525;23;20375;-69
2022/02/28 14:09:51;;;;;;;10.20;5.53;;;16.30;21.30;;;;;;6244082;22;20697;-70
2022/02/28 14:12:39;;;;;;;9.73;5.70;;;16.30;21.20;;;;;;6244348;23;20382;-69
2022/02/28 14:15:27;;;;;;;10.33;6.90;;;16.30;21.10;;;;;;6243187;23;20439;-70
2022/02/28 14:18:14;;;;;;;12.00;5.90;;;16.20;20.90;;;;;;6234064;23;20429;-70
2022/02/28 14:21:07;;;;;;;7.73;5.47;;;16.20;19.80;;;;;;6241415;22;20711;-69
2022/02/28 14:23:53;;;;;;;7.13;5.50;;;16.30;20.40;;;;;;6242698;23;20840;-69
2022/02/28 14:26:41;;;;;;;8.83;5.97;;;16.50;19.70;;;;;;6242534;23;21093;-69
2022/02/28 14:29:33;;;;;;;9.27;6.00;;;16.50;20.50;;;;;;6240560;23;20371;-70
2022/02/28 14:32:19;;;;;;;7.67;5.50;;;16.50;19.40;;;;;;6240306;23;20673;-69
2022/02/28 14:35:09;;;;;;;8.17;5.73;;;16.50;19.90;;;;;;6241463;23;20378;-69
2022/02/28 14:37:54;;;;;;;14.97;6.23;;;16.60;19.40;;;;;;6240773;23;20778;-69
2022/02/28 14:40:40;;;;;;;11.70;6.10;;;16.70;19.70;;;;;;6242073;22;20437;-70
2022/02/28 14:43:25;;;;;;;8.30;5.40;;;16.90;18.80;;;;;;6242496;23;20381;-69
2022/02/28 14:46:16;;;;;;;7.33;5.97;;;16.60;17.90;;;;;;6243188;23;20832;-70
2022/02/28 14:49:02;;;;;;;7.80;5.30;;;16.10;18.90;;;;;;6239707;23;20379;-69
2022/02/28 14:51:48;;;;;;;8.27;5.23;;;15.70;19.50;;;;;;6239167;22;20435;-70
2022/02/28 14:54:34;;;;;;;8.17;5.50;;;14.90;19.10;;;;;;6241867;23;20862;-70
2022/02/28 14:57:20;;;;;;;11.03;5.53;;;14.30;20.40;;;;;;6241249;23;20479;-70
2022/02/28 15:00:07;;;;;;;8.27;5.23;;;13.80;19.90;;;;;;6239214;22;21262;-69
2022/02/28 15:02:54;;;;;;;8.60;4.73;;;13.60;20.90;;;;;;6241014;23;20376;-69
2022/02/28 15:05:39;;;;;;;8.90;5.80;;;13.30;20.90;;;;;;6243698;23;20428;-69
2022/02/28 15:08:26;;;;;;;8.40;6.10;;;13.20;21.10;;;;;;6231924;23;20428;-71
2022/02/28 15:11:12;;;;;;;8.57;5.23;;;13.10;22.20;;;;;;6243087;22;20414;-71
2022/02/28 15:13:58;;;;;;;7.97;5.50;;;13.30;22.10;;;;;;6243242;23;20393;-70
2022/02/28 15:16:44;;;;;;;6.53;5.07;;;14.00;21.20;;;;;;6241325;23;20470;-69
2022/02/28 15:19:30;;;;;;;9.37;6.00;;;15.30;19.90;;;;;;6244435;23;20457;-69
2022/02/28 15:22:15;;;;;;;8.70;5.50;;;16.20;17.40;;;;;;6244722;23;20667;-70
2022/02/28 15:25:02;;;;;;;10.10;6.03;;;16.40;17.70;;;;;;6244006;23;20350;-71
2022/02/28 15:27:48;;;;;;;8.17;5.50;;;17.10;17.90;;;;;;6241863;23;20735;-70
2022/02/28 15:30:34;;;;;;;11.03;5.80;;;17.90;17.40;;;;;;6244156;22;20382;-71
2022/02/28 15:33:20;;;;;;;6.73;5.20;;;18.70;16.20;;;;;;6245031;23;20900;-70
2022/02/28 15:36:06;;;;;;;7.00;5.37;;;19.60;15.40;;;;;;6243473;23;20959;-70
2022/02/28 15:38:51;;;;;;;8.50;5.20;;;19.30;15.50;;;;;;6244966;23;20424;-70
2022/02/28 15:41:38;;;;;;;7.47;4.53;;;18.70;16.40;;;;;;6245371;22;20447;-70
2022/02/28 15:44:24;;;;;;;13.10;5.63;;;18.00;16.90;;;;;;6244775;23;20442;-70
2022/02/28 15:47:10;;;;;;;7.43;5.60;;;17.00;19.60;;;;;;6242645;23;20338;-70
2022/02/28 15:49:56;;;;;;;8.83;5.20;;;15.90;22.10;;;;;;6243968;22;20372;-71
2022/02/28 15:52:41;;;;;;;8.43;5.17;;;14.90;21.70;;;;;;6244377;23;20442;-70
2022/02/28 15:55:27;;;;;;;9.10;5.40;;;14.10;22.60;;;;;;6243196;23;20413;-70
2022/02/28 15:58:14;;;;;;;12.33;5.07;;;13.40;25.20;;;;;;6243835;23;20747;-70
2022/02/28 16:01:00;;;;;;;7.17;5.03;;;12.80;28.40;;;;;;6237461;22;20766;-70
2022/02/28 16:03:47;;;;;;;7.47;4.97;;;12.20;31.90;;;;;;6240998;23;20355;-68
2022/02/28 16:06:33;;;;;;;10.10;5.07;;;11.70;29.70;;;;;;6236839;23;20431;-69
2022/02/28 16:09:18;;;;;;;9.30;5.60;;;11.40;29.20;;;;;;6240386;23;20864;-70
2022/02/28 16:12:05;;;;;;;6.10;4.70;;;11.10;32.40;;;;;;6242267;22;20413;-69
2022/02/28 16:14:52;;;;;;;8.07;5.17;;;10.90;34.20;;;;;;6240357;23;20707;-70
2022/02/28 16:17:38;;;;;;;7.67;5.13;;;10.70;36.60;;;;;;6241050;23;20501;-69
2022/02/28 16:20:25;;;;;;;8.67;5.47;;;10.40;37.40;;;;;;6243701;22;20406;-70
2022/02/28 16:23:11;;;;;;;7.33;5.20;;;10.20;37.80;;;;;;6243122;23;20755;-69
2022/02/28 16:25:56;;;;;;;8.00;4.60;;;9.80;39.70;;;;;;6241458;23;20439;-69
2022/02/28 16:28:42;;;;;;;8.87;4.47;;;9.70;42.30;;;;;;6243410;23;20367;-69
2022/02/28 16:31:29;;;;;;;10.77;5.53;;;9.70;44.50;;;;;;6243893;22;20390;-69
2022/02/28 16:34:15;;;;;;;8.53;5.03;;;9.50;44.10;;;;;;6243321;23;20382;-70
2022/02/28 16:37:01;;;;;;;12.40;5.73;;;9.40;46.60;;;;;;6241578;23;20872;-70
2022/02/28 16:39:46;;;;;;;9.30;5.23;;;9.10;47.20;;;;;;6243277;22;20375;-69
2022/02/28 16:42:32;;;;;;;9.00;5.37;;;9.10;49.30;;;;;;6244230;23;20388;-69
2022/02/28 16:45:18;;;;;;;8.03;5.80;;;8.90;51.30;;;;;;6241155;23;20472;-69
2022/02/28 16:48:05;;;;;;;8.87;5.63;;;8.70;54.10;;;;;;6243815;23;20371;-70
2022/02/28 16:50:51;;;;;;;8.27;5.50;;;8.60;55.60;;;;;;6245071;22;20454;-68
2022/02/28 16:53:37;;;;;;;8.67;6.10;;;8.40;57.70;;;;;;6243136;23;20700;-69
2022/02/28 16:56:23;;;;;;;9.10;6.20;;;8.30;58.30;;;;;;6239620;23;20479;-69
2022/02/28 16:59:09;;;;;;;9.57;7.03;;;8.20;58.30;;;;;;6243858;23;20361;-69
2022/02/28 17:01:54;;;;;;;9.17;6.70;;;8.20;57.90;;;;;;6242624;22;20425;-70
2022/02/28 17:04:41;;;;;;;8.10;6.10;;;8.10;58.70;;;;;;6240615;23;20395;-70
2022/02/28 17:07:27;;;;;;;8.03;6.50;;;8.00;61.40;;;;;;6243548;23;20422;-68
2022/02/28 17:10:14;;;;;;;7.63;5.93;;;7.80;63.10;;;;;;6242673;23;20703;-69
2022/02/28 17:12:59;;;;;;;8.43;6.47;;;7.70;62.90;;;;;;6242927;23;20382;-69
2022/02/28 17:15:45;;;;;;;9.40;6.30;;;7.60;62.80;;;;;;6239982;23;20375;-68
2022/02/28 17:18:30;;;;;;;9.03;6.90;;;7.60;63.50;;;;;;6243354;23;20577;-71
2022/02/28 17:21:17;;;;;;;10.57;7.90;;;7.40;65.90;;;;;;6243859;22;20949;-69
2022/02/28 17:24:06;;;;;;;15.50;8.10;;;7.30;65.30;;;;;;6243311;23;20353;-71
2022/02/28 17:26:51;;;;;;;13.70;7.80;;;7.20;65.40;;;;;;6242576;23;20370;-71
2022/02/28 17:29:37;;;;;;;18.30;7.87;;;7.10;65.20;;;;;;6243539;23;20375;-71
2022/02/28 17:32:22;;;;;;;11.93;7.60;;;7.00;65.20;;;;;;6243766;22;20478;-71
2022/02/28 17:35:09;;;;;;;10.13;8.20;;;6.80;67.10;;;;;;6242552;23;20449;-72
2022/02/28 17:37:57;;;;;;;14.50;8.37;;;6.70;66.20;;;;;;6245463;23;20418;-72
2022/02/28 17:40:44;;;;;;;14.27;8.17;;;6.50;67.80;;;;;;6245286;22;20383;-71
2022/02/28 17:43:30;;;;;;;14.80;9.13;;;6.50;67.70;;;;;;6245193;23;20506;-72
2022/02/28 17:46:16;;;;;;;13.40;9.63;;;6.40;68.40;;;;;;6242984;23;20381;-72
2022/02/28 17:49:01;;;;;;;13.93;9.50;;;6.40;67.00;;;;;;6245287;23;20422;-72
2022/02/28 17:51:47;;;;;;;15.90;9.20;;;6.30;68.50;;;;;;6245305;22;20434;-72
2022/02/28 17:54:34;;;;;;;13.90;9.97;;;6.20;65.60;;;;;;6242980;23;20383;-71
2022/02/28 17:57:20;;;;;;;18.20;9.13;;;6.20;66.50;;;;;;6245370;23;20815;-72
2022/02/28 18:00:10;;;;;;;20.13;9.53;;;6.10;69.10;;;;;;6245252;23;20375;-72
2022/02/28 18:02:58;;;;;;;12.40;9.27;;;6.10;69.50;;;;;;6245340;23;20712;-71
2022/02/28 18:05:44;;;;;;;11.23;7.60;;;6.10;69.10;;;;;;6242525;23;20374;-71
2022/02/28 18:08:29;;;;;;;11.93;8.90;;;6.20;67.50;;;;;;6245229;23;20539;-72
2022/02/28 18:11:16;;;;;;;13.53;8.90;;;6.10;67.50;;;;;;6245219;22;20508;-71
2022/02/28 18:14:02;;;;;;;13.50;8.80;;;6.00;67.40;;;;;;6242940;23;20395;-73
2022/02/28 18:16:48;;;;;;;14.57;8.40;;;6.00;63.70;;;;;;6244869;23;20769;-72
2022/02/28 18:19:34;;;;;;;17.10;9.43;;;6.00;64.10;;;;;;6245294;23;20766;-71
2022/02/28 18:22:19;;;;;;;12.90;9.20;;;6.00;66.00;;;;;;6244866;22;20999;-71
2022/02/28 18:25:06;;;;;;;11.77;8.27;;;6.10;64.40;;;;;;6242532;23;20459;-72
2022/02/28 18:27:53;;;;;;;14.30;8.50;;;6.10;65.60;;;;;;6245069;23;20441;-71
2022/02/28 18:30:42;;;;;;;14.43;9.33;;;6.00;65.90;;;;;;6244962;22;21311;-71
2022/02/28 18:33:28;;;;;;;16.00;9.93;;;6.00;64.90;;;;;;6243016;23;20719;-71
2022/02/28 18:36:14;;;;;;;20.53;8.67;;;6.00;67.60;;;;;;6244750;23;20375;-71
2022/02/28 18:38:59;;;;;;;17.80;9.80;;;5.90;67.30;;;;;;6244507;23;20422;-71
2022/02/28 18:41:45;;;;;;;13.47;9.67;;;5.80;68.00;;;;;;6244886;22;20411;-72
2022/02/28 18:44:35;;;;;;;12.47;9.27;;;5.70;69.30;;;;;;6241728;23;20379;-71
2022/02/28 18:47:21;;;;;;;16.50;9.90;;;5.70;67.10;;;;;;6245116;23;20422;-71
2022/02/28 18:50:07;;;;;;;16.37;9.60;;;5.60;67.00;;;;;;6244668;23;20406;-71
2022/02/28 18:52:54;;;;;;;17.07;10.10;;;5.60;68.00;;;;;;6244863;23;20406;-71
2022/02/28 18:55:40;;;;;;;12.83;9.00;;;5.50;68.60;;;;;;6243466;23;20382;-72
2022/02/28 18:58:26;;;;;;;17.00;10.13;;;5.50;69.10;;;;;;6244719;23;20435;-71
2022/02/28 19:01:13;;;;;;;18.37;11.00;;;5.40;69.50;;;;;;6244495;22;20901;-71
2022/02/28 19:03:59;;;;;;;17.40;11.17;;;5.50;69.90;;;;;;6239450;23;20375;-70
2022/02/28 19:06:46;;;;;;;22.10;10.87;;;5.40;71.60;;;;;;6242893;23;20729;-71
2022/02/28 19:09:31;;;;;;;15.97;10.30;;;5.30;71.60;;;;;;6240940;23;20941;-70
2022/02/28 19:12:17;;;;;;;19.87;10.40;;;5.30;68.10;;;;;;6240298;22;20419;-71
2022/02/28 19:15:05;;;;;;;21.10;11.57;;;5.20;70.60;;;;;;6238335;23;20392;-71
2022/02/28 19:17:53;;;;;;;16.33;11.70;;;5.20;69.40;;;;;;6239235;23;20421;-70
2022/02/28 19:20:39;;;;;;;19.80;12.23;;;5.10;71.00;;;;;;6239848;22;20476;-70
2022/02/28 19:23:24;;;;;;;18.17;12.60;;;5.10;71.80;;;;;;6238161;23;20429;-70
2022/02/28 19:26:10;;;;;;;15.50;11.27;;;5.00;71.00;;;;;;6240682;23;20382;-72
2022/02/28 19:28:56;;;;;;;18.47;11.90;;;4.90;71.70;;;;;;6240699;23;20506;-71
2022/02/28 19:31:41;;;;;;;21.67;13.10;;;5.00;71.50;;;;;;6240233;22;20410;-71
2022/02/28 19:34:28;;;;;;;21.07;12.50;;;4.90;72.00;;;;;;6238376;23;20521;-71
2022/02/28 19:37:14;;;;;;;25.03;11.93;;;4.80;72.70;;;;;;6240153;23;20453;-71
2022/02/28 19:40:00;;;;;;;20.60;11.30;;;4.70;72.60;;;;;;6240031;23;20386;-70
2022/02/28 19:42:45;;;;;;;18.55;12.70;;;4.70;72.40;;;;;;6239134;22;20418;-71
2022/02/28 19:45:31;;;;;;;20.10;12.47;;;4.60;73.70;;;;;;6240366;23;20173;-71
2022/02/28 19:48:18;;;;;;;17.20;12.10;;;4.50;74.00;;;;;;6240318;23;20375;-72
2022/02/28 19:51:05;;;;;;;19.93;12.57;;;4.40;75.60;;;;;;6240365;22;20431;-69
2022/02/28 19:53:52;;;;;;;18.10;11.70;;;4.40;75.60;;;;;;6237795;23;20375;-70
2022/02/28 19:56:38;;;;;;;26.47;13.07;;;4.40;75.60;;;;;;6239406;23;20171;-71
2022/02/28 19:59:24;;;;;;;16.83;11.77;;;4.40;76.60;;;;;;6240459;23;21024;-70
2022/02/28 20:02:09;;;;;;;16.85;11.65;;;4.40;75.10;;;;;;6239350;22;20924;-71
2022/02/28 20:04:55;;;;;;;27.23;13.03;;;4.30;75.10;;;;;;6239175;23;20170;-70
2022/02/28 20:07:44;;;;;;;24.30;12.70;;;4.30;76.10;;;;;;6240635;23;20379;-71
2022/02/28 20:10:30;;;;;;;18.37;12.63;;;4.40;76.00;;;;;;6240469;22;20444;-71
2022/02/28 20:13:16;;;;;;;17.97;11.77;;;4.40;74.60;;;;;;6237871;23;20382;-71
2022/02/28 20:16:03;;;;;;;17.50;11.20;;;4.50;74.90;;;;;;6239723;23;20453;-72
2022/02/28 20:18:49;;;;;;;15.27;11.67;;;4.40;75.00;;;;;;6239833;23;20423;-72
2022/02/28 20:21:35;;;;;;;23.00;11.43;;;4.40;75.40;;;;;;6240880;22;20413;-71
2022/02/28 20:24:25;;;;;;;17.90;11.37;;;4.50;74.60;;;;;;6238323;23;20383;-71
2022/02/28 20:27:11;;;;;;;18.60;11.70;;;4.40;74.40;;;;;;6241394;23;20489;-71
2022/02/28 20:29:56;;;;;;;18.50;12.10;;;4.40;74.30;;;;;;6241358;23;20844;-71
2022/02/28 20:32:42;;;;;;;17.65;11.75;;;4.40;73.60;;;;;;6240982;22;20436;-71
2022/02/28 20:35:28;;;;;;;16.30;11.65;;;4.50;73.90;;;;;;6242317;23;20175;-71
2022/02/28 20:38:15;;;;;;;18.75;11.65;;;4.50;73.70;;;;;;6242418;23;20318;-71
2022/02/28 20:41:02;;;;;;;17.23;10.67;;;4.60;74.80;;;;;;6242216;22;20673;-71
2022/02/28 20:43:49;;;;;;;16.92;11.55;;;4.60;75.00;;;;;;6240609;23;20867;-72
2022/02/28 20:46:35;;;;;;;17.65;11.98;;;4.60;75.80;;;;;;6241501;23;20224;-72
2022/02/28 20:49:21;;;;;;;19.30;11.25;;;4.60;73.40;;;;;;6241525;23;20159;-71
2022/02/28 20:52:07;;;;;;;21.75;11.80;;;4.60;73.70;;;;;;6239598;22;20765;-71
2022/02/28 20:54:53;;;;;;;15.60;10.80;;;4.50;75.10;;;;;;6240942;23;20171;-72
2022/02/28 20:57:40;;;;;;;16.97;11.80;;;4.50;74.80;;;;;;6241222;23;20430;-71
2022/02/28 21:00:26;;;;;;;16.30;10.80;;;4.40;74.10;;;;;;6241649;22;20713;-71
2022/02/28 21:03:11;;;;;;;14.57;10.70;;;4.40;74.50;;;;;;6239106;23;20230;-72
2022/02/28 21:05:57;;;;;;;17.83;10.50;;;4.50;74.00;;;;;;6241106;23;20447;-71
2022/02/28 21:08:42;;;;;;;16.33;11.17;;;4.50;74.70;;;;;;6242497;23;20222;-71
2022/02/28 21:11:28;;;;;;;17.70;11.40;;;4.50;74.50;;;;;;6242409;22;20880;-72
2022/02/28 21:14:15;;;;;;;13.20;9.63;;;4.50;76.00;;;;;;6242265;23;20265;-72
2022/02/28 21:17:01;;;;;;;15.60;10.60;;;4.40;75.40;;;;;;6243070;23;20419;-71
2022/02/28 21:19:46;;;;;;;15.55;10.75;;;4.50;74.80;;;;;;6241809;23;20553;-71
2022/02/28 21:22:33;;;;;;;17.57;11.07;;;4.50;74.50;;;;;;6240508;22;20210;-71
2022/02/28 21:25:19;;;;;;;19.47;10.90;;;4.40;75.00;;;;;;6241434;23;20368;-71
2022/02/28 21:28:04;;;;;;;23.50;10.25;;;4.40;74.70;;;;;;6242205;23;20382;-73
2022/02/28 21:30:52;;;;;;;19.23;10.50;;;4.40;74.70;;;;;;6242153;22;20210;-72
2022/02/28 21:33:38;;;;;;;16.27;10.93;;;4.30;74.70;;;;;;6239304;23;20217;-70
2022/02/28 21:36:23;;;;;;;17.33;11.23;;;4.40;74.40;;;;;;6243425;23;20459;-68
2022/02/28 21:39:10;;;;;;;12.83;10.10;;;4.30;74.20;;;;;;6243299;23;20469;-71
2022/02/28 21:41:55;;;;;;;15.13;11.65;;;4.30;72.90;;;;;;6240807;22;20544;-71
2022/02/28 21:44:41;;;;;;;16.73;10.70;;;4.20;73.80;;;;;;6243424;23;20175;-71
2022/02/28 21:47:28;;;;;;;14.93;9.97;;;4.20;76.10;;;;;;6243563;23;20171;-71
2022/02/28 21:50:15;;;;;;;15.00;10.80;;;4.20;76.50;;;;;;6244090;23;20374;-71
2022/02/28 21:53:03;;;;;;;25.65;11.98;;;4.10;77.00;;;;;;6243171;23;20604;-70
2022/02/28 21:55:49;;;;;;;20.38;11.43;;;4.20;75.20;;;;;;6244680;23;20660;-71
2022/02/28 21:58:35;;;;;;;16.70;10.68;;;4.10;76.70;;;;;;6245095;23;20524;-71
2022/02/28 22:01:20;;;;;;;18.73;10.40;;;4.10;76.70;;;;;;6243089;22;20539;-71
2022/02/28 22:04:07;;;;;;;16.13;11.43;;;4.00;77.30;;;;;;6244809;23;20833;-71
2022/02/28 22:06:53;;;;;;;15.47;10.07;;;4.00;77.30;;;;;;6245117;23;20379;-71
2022/02/28 22:09:38;;;;;;;15.80;10.90;;;4.00;77.50;;;;;;6245073;23;20451;-71
2022/02/28 22:12:24;;;;;;;14.43;10.35;;;4.00;78.40;;;;;;6242525;22;20202;-70
2022/02/28 22:15:11;;;;;;;15.98;10.50;;;3.90;77.90;;;;;;6244847;23;20172;-71
2022/02/28 22:17:56;;;;;;;20.93;11.03;;;3.90;78.40;;;;;;6244960;23;20234;-70
2022/02/28 22:20:43;;;;;;;14.68;10.68;;;3.90;78.70;;;;;;6242228;22;20471;-72
2022/02/28 22:23:28;;;;;;;14.57;10.48;;;3.90;78.30;;;;;;6244512;23;20617;-71
2022/02/28 22:26:14;;;;;;;15.52;10.50;;;3.70;78.70;;;;;;6245177;23;20167;-71
2022/02/28 22:29:00;;;;;;;15.93;10.68;;;3.80;78.90;;;;;;6244706;23;20265;-71
2022/02/28 22:31:45;;;;;;;19.65;10.65;;;3.80;80.20;;;;;;6242760;22;20287;-70
2022/02/28 22:34:31;;;;;;;15.88;11.10;;;3.80;80.40;;;;;;6244867;23;20183;-71
2022/02/28 22:37:29;;;;;;;26.20;11.43;;;3.80;79.80;;;;;;6243577;23;20215;-71
2022/02/28 22:40:17;;;;;;;15.63;9.75;;;3.80;80.90;;;;;;6242540;23;20186;-70
2022/02/28 22:43:04;;;;;;;15.57;9.77;;;3.70;80.20;;;;;;6243674;23;20171;-71
2022/02/28 22:45:50;;;;;;;17.23;11.00;;;3.80;80.90;;;;;;6244485;23;20253;-70
2022/02/28 22:48:36;;;;;;;16.95;10.82;;;3.90;81.50;;;;;;6244682;23;20365;-70
2022/02/28 22:51:21;;;;;;;15.35;9.75;;;3.80;83.00;;;;;;6242421;22;20205;-71
2022/02/28 22:54:08;;;;;;;16.45;9.63;;;3.80;82.80;;;;;;6244197;23;20165;-72
2022/02/28 22:56:54;;;;;;;17.60;10.30;;;3.80;82.20;;;;;;6244618;23;20622;-71
2022/02/28 22:59:41;;;;;;;20.77;11.33;;;3.90;81.30;;;;;;6244087;23;20191;-71
2022/02/28 23:05:30;;;;;;;17.38;10.43;;;3.80;80.20;;;;;;6243408;23;20170;-71
2022/02/28 23:20:38;;;;;;;16.90;11.60;;;3.80;75.30;;;;;;6241087;22;20665;-71
2022/02/28 23:23:25;;;;;;;16.35;9.70;;;3.80;76.50;;;;;;6242422;23;20190;-71
2022/02/28 23:26:11;;;;;;;18.35;10.50;;;3.90;76.10;;;;;;6243701;23;20242;-71
2022/02/28 23:28:59;;;;;;;17.30;10.20;;;3.90;75.20;;;;;;6242655;23;20498;-71
2022/02/28 23:31:44;;;;;;;14.40;9.80;;;4.00;74.10;;;;;;6241905;22;20414;-72
2022/02/28 23:34:31;;;;;;;16.20;10.25;;;3.90;75.00;;;;;;6242443;23;20449;-71
2022/02/28 23:37:16;;;;;;;17.13;10.00;;;3.90;74.50;;;;;;6243068;23;20165;-72
2022/02/28 23:40:02;;;;;;;13.55;9.07;;;3.90;73.60;;;;;;6240215;23;20199;-71
2022/02/28 23:42:48;;;;;;;11.57;8.83;;;3.90;73.50;;;;;;6242652;22;20206;-71
2022/02/28 23:45:35;;;;;;;14.73;8.70;;;3.80;74.20;;;;;;6242357;23;20462;-71
2022/02/28 23:48:20;;;;;;;16.33;10.20;;;3.80;75.10;;;;;;6242293;23;20512;-71
2022/02/28 23:51:06;;;;;;;15.05;10.02;;;3.80;72.90;;;;;;6240767;22;20444;-71
2022/02/28 23:53:51;;;;;;;13.80;8.83;;;3.80;74.10;;;;;;6243070;23;20253;-71
2022/02/28 23:56:37;;;;;;;14.73;9.75;;;3.90;72.50;;;;;;6241786;23;20425;-71
2022/02/28 23:59:23;;;;;;;15.20;9.60;;;3.80;72.80;;;;;;6241389;23;20191;-71
